sensor_id;sensor_type;location;lat;lon;timestamp;pressure;altitude;pressure_sealevel;temperature;humidity
79131;BME280;72396;45.194;9.142;2023-11-21T00:02:25;100124.34;;;21.39;49.40
79131;BME280;72396;45.194;9.142;2023-11-21T00:04:50;100118.09;;;21.39;49.13
79131;BME280;72396;45.194;9.142;2023-11-21T00:07:17;100112.75;;;21.39;49.15
79131;BME280;72396;45.194;9.142;2023-11-21T00:09:42;100120.78;;;21.39;49.09
79131;BME280;72396;45.194;9.142;2023-11-21T00:12:08;100121.66;;;21.39;49.09
79131;BME280;72396;45.194;9.142;2023-11-21T00:14:37;100121.78;;;21.38;49.09
79131;BME280;72396;45.194;9.142;2023-11-21T00:17:03;100116.41;;;21.38;49.01
79131;BME280;72396;45.194;9.142;2023-11-21T00:19:29;100113.72;;;21.38;49.00
79131;BME280;72396;45.194;9.142;2023-11-21T00:21:54;100104.81;;;21.37;48.95
79131;BME280;72396;45.194;9.142;2023-11-21T00:24:19;100112.03;;;21.37;48.89
79131;BME280;72396;45.194;9.142;2023-11-21T00:26:45;100102.56;;;21.33;48.88
79131;BME280;72396;45.194;9.142;2023-11-21T00:29:11;100103.13;;;21.36;48.68
79131;BME280;72396;45.194;9.142;2023-11-21T00:31:36;100091.84;;;21.33;48.89
79131;BME280;72396;45.194;9.142;2023-11-21T00:34:02;100094.25;;;21.36;48.70
79131;BME280;72396;45.194;9.142;2023-11-21T00:36:30;100086.31;;;21.34;48.80
79131;BME280;72396;45.194;9.142;2023-11-21T00:38:56;100082.81;;;21.34;48.64
79131;BME280;72396;45.194;9.142;2023-11-21T00:41:21;100090.59;;;21.37;48.90
79131;BME280;72396;45.194;9.142;2023-11-21T00:43:46;100087.91;;;21.37;48.61
79131;BME280;72396;45.194;9.142;2023-11-21T00:46:12;100095.25;;;21.35;48.78
79131;BME280;72396;45.194;9.142;2023-11-21T00:48:37;100096.06;;;21.35;48.77
79131;BME280;72396;45.194;9.142;2023-11-21T00:51:02;100089.88;;;21.35;48.82
79131;BME280;72396;45.194;9.142;2023-11-21T00:53:28;100088.03;;;21.35;48.84
79131;BME280;72396;45.194;9.142;2023-11-21T00:55:53;100084.50;;;21.35;48.71
79131;BME280;72396;45.194;9.142;2023-11-21T00:58:23;100083.81;;;21.33;48.92
79131;BME280;72396;45.194;9.142;2023-11-21T01:00:48;100091.69;;;21.34;48.86
79131;BME280;72396;45.194;9.142;2023-11-21T01:03:14;100097.91;;;21.35;48.51
79131;BME280;72396;45.194;9.142;2023-11-21T01:05:39;100095.34;;;21.33;48.65
79131;BME280;72396;45.194;9.142;2023-11-21T01:08:04;100099.88;;;21.33;48.61
79131;BME280;72396;45.194;9.142;2023-11-21T01:10:30;100096.34;;;21.32;48.41
79131;BME280;72396;45.194;9.142;2023-11-21T01:12:56;100090.16;;;21.32;48.56
79131;BME280;72396;45.194;9.142;2023-11-21T01:15:23;100095.63;;;21.30;48.47
79131;BME280;72396;45.194;9.142;2023-11-21T01:17:48;100092.25;;;21.28;48.39
79131;BME280;72396;45.194;9.142;2023-11-21T01:20:13;100084.31;;;21.26;48.44
79131;BME280;72396;45.194;9.142;2023-11-21T01:22:39;100088.41;;;21.30;48.29
79131;BME280;72396;45.194;9.142;2023-11-21T01:25:05;100084.19;;;21.28;48.42
79131;BME280;72396;45.194;9.142;2023-11-21T01:27:32;100081.66;;;21.26;48.44
79131;BME280;72396;45.194;9.142;2023-11-21T01:29:57;100079.66;;;21.28;48.06
79131;BME280;72396;45.194;9.142;2023-11-21T01:32:23;100076.44;;;21.25;48.10
79131;BME280;72396;45.194;9.142;2023-11-21T01:34:50;100081.09;;;21.23;48.28
79131;BME280;72396;45.194;9.142;2023-11-21T01:37:15;100081.66;;;21.26;48.16
79131;BME280;72396;45.194;9.142;2023-11-21T01:39:43;100080.66;;;21.27;48.31
79131;BME280;72396;45.194;9.142;2023-11-21T01:42:10;100075.44;;;21.26;48.15
79131;BME280;72396;45.194;9.142;2023-11-21T01:44:38;100063.88;;;21.25;48.11
79131;BME280;72396;45.194;9.142;2023-11-21T01:47:04;100062.16;;;21.24;48.11
79131;BME280;72396;45.194;9.142;2023-11-21T01:49:35;100062.88;;;21.26;47.96
79131;BME280;72396;45.194;9.142;2023-11-21T01:52:01;100064.72;;;21.26;48.05
79131;BME280;72396;45.194;9.142;2023-11-21T01:54:27;100069.22;;;21.25;47.97
79131;BME280;72396;45.194;9.142;2023-11-21T01:56:54;100068.41;;;21.25;48.05
79131;BME280;72396;45.194;9.142;2023-11-21T01:59:20;100056.38;;;21.19;48.18
79131;BME280;72396;45.194;9.142;2023-11-21T02:01:49;100059.63;;;21.23;48.14
79131;BME280;72396;45.194;9.142;2023-11-21T02:04:15;100066.13;;;21.20;47.94
79131;BME280;72396;45.194;9.142;2023-11-21T02:06:41;100066.69;;;21.24;48.00
79131;BME280;72396;45.194;9.142;2023-11-21T02:09:06;100059.06;;;21.19;47.94
79131;BME280;72396;45.194;9.142;2023-11-21T02:11:31;100071.19;;;21.23;47.83
79131;BME280;72396;45.194;9.142;2023-11-21T02:14:00;100074.00;;;21.22;47.83
79131;BME280;72396;45.194;9.142;2023-11-21T02:16:26;100067.81;;;21.21;47.96
79131;BME280;72396;45.194;9.142;2023-11-21T02:18:52;100071.47;;;21.20;47.89
79131;BME280;72396;45.194;9.142;2023-11-21T02:21:18;100065.13;;;21.21;47.84
79131;BME280;72396;45.194;9.142;2023-11-21T02:23:44;100059.06;;;21.19;47.65
79131;BME280;72396;45.194;9.142;2023-11-21T02:26:12;100057.47;;;21.17;48.06
79131;BME280;72396;45.194;9.142;2023-11-21T02:28:37;100056.66;;;21.16;47.73
79131;BME280;72396;45.194;9.142;2023-11-21T02:31:04;100050.31;;;21.17;47.69
79131;BME280;72396;45.194;9.142;2023-11-21T02:33:30;100049.44;;;21.17;47.85
79131;BME280;72396;45.194;9.142;2023-11-21T02:35:59;100049.44;;;21.17;47.80
79131;BME280;72396;45.194;9.142;2023-11-21T02:38:24;100042.25;;;21.17;47.60
79131;BME280;72396;45.194;9.142;2023-11-21T02:40:50;100031.34;;;21.09;47.80
79131;BME280;72396;45.194;9.142;2023-11-21T02:43:15;100042.38;;;21.15;47.70
79131;BME280;72396;45.194;9.142;2023-11-21T02:45:40;100023.75;;;21.14;47.81
79131;BME280;72396;45.194;9.142;2023-11-21T02:48:07;100037.16;;;21.14;47.70
79131;BME280;72396;45.194;9.142;2023-11-21T02:50:32;100026.59;;;21.12;47.78
79131;BME280;72396;45.194;9.142;2023-11-21T02:52:58;100021.22;;;21.12;47.73
79131;BME280;72396;45.194;9.142;2023-11-21T02:55:26;100018.66;;;21.11;47.53
79131;BME280;72396;45.194;9.142;2023-11-21T02:57:51;100030.38;;;21.10;47.89
79131;BME280;72396;45.194;9.142;2023-11-21T03:00:17;100031.34;;;21.09;47.65
79131;BME280;72396;45.194;9.142;2023-11-21T03:02:43;100030.25;;;21.11;47.52
79131;BME280;72396;45.194;9.142;2023-11-21T03:05:08;100021.50;;;21.09;47.64
79131;BME280;72396;45.194;9.142;2023-11-21T03:07:34;100026.00;;;21.09;47.64
79131;BME280;72396;45.194;9.142;2023-11-21T03:10:00;100007.63;;;21.04;47.62
79131;BME280;72396;45.194;9.142;2023-11-21T03:12:26;100015.28;;;21.09;47.64
79131;BME280;72396;45.194;9.142;2023-11-21T03:14:51;100009.09;;;21.08;47.73
79131;BME280;72396;45.194;9.142;2023-11-21T03:17:16;100006.94;;;21.02;47.74
79131;BME280;72396;45.194;9.142;2023-11-21T03:19:42;100020.06;;;21.05;47.50
79131;BME280;72396;45.194;9.142;2023-11-21T03:22:07;100022.03;;;21.03;47.47
79131;BME280;72396;45.194;9.142;2023-11-21T03:24:34;100037.13;;;21.04;47.64
79131;BME280;72396;45.194;9.142;2023-11-21T03:27:00;100022.03;;;21.03;47.85
79131;BME280;72396;45.194;9.142;2023-11-21T03:29:25;100012.16;;;21.04;47.65
79131;BME280;72396;45.194;9.142;2023-11-21T03:31:51;100016.66;;;21.03;47.55
79131;BME280;72396;45.194;9.142;2023-11-21T03:34:25;100012.16;;;21.04;47.57
79131;BME280;72396;45.194;9.142;2023-11-21T03:36:53;100022.03;;;21.03;47.48
79131;BME280;72396;45.194;9.142;2023-11-21T03:39:20;100031.91;;;21.03;47.53
79131;BME280;72396;45.194;9.142;2023-11-21T03:41:46;100025.84;;;21.00;47.54
79131;BME280;72396;45.194;9.142;2023-11-21T03:44:12;100011.00;;;20.96;47.58
79131;BME280;72396;45.194;9.142;2023-11-21T03:46:38;100024.00;;;21.01;47.38
79131;BME280;72396;45.194;9.142;2023-11-21T03:49:03;100033.03;;;21.00;47.36
79131;BME280;72396;45.194;9.142;2023-11-21T03:51:28;100017.63;;;20.92;47.41
79131;BME280;72396;45.194;9.142;2023-11-21T03:53:54;100036.56;;;21.00;47.49
79131;BME280;72396;45.194;9.142;2023-11-21T03:56:19;100035.59;;;21.01;47.46
79131;BME280;72396;45.194;9.142;2023-11-21T03:58:47;100035.00;;;20.98;47.42
79131;BME280;72396;45.194;9.142;2023-11-21T04:01:19;100040.22;;;20.99;47.43
79131;BME280;72396;45.194;9.142;2023-11-21T04:03:47;100036.81;;;20.97;47.35
79131;BME280;72396;45.194;9.142;2023-11-21T04:06:12;100042.06;;;20.99;47.51
79131;BME280;72396;45.194;9.142;2023-11-21T04:08:37;100041.22;;;20.98;47.40
79131;BME280;72396;45.194;9.142;2023-11-21T04:11:03;100039.66;;;20.96;47.32
79131;BME280;72396;45.194;9.142;2023-11-21T04:13:29;100044.84;;;20.97;47.34
79131;BME280;72396;45.194;9.142;2023-11-21T04:15:55;100041.34;;;20.97;47.35
79131;BME280;72396;45.194;9.142;2023-11-21T04:18:21;100035.28;;;20.95;47.32
79131;BME280;72396;45.194;9.142;2023-11-21T04:20:46;100032.59;;;20.95;46.96
79131;BME280;72396;45.194;9.142;2023-11-21T04:23:13;100030.75;;;20.95;47.37
79131;BME280;72396;45.194;9.142;2023-11-21T04:25:38;100016.63;;;20.93;47.42
79131;BME280;72396;45.194;9.142;2023-11-21T04:28:04;100022.97;;;20.92;47.20
79131;BME280;72396;45.194;9.142;2023-11-21T04:30:29;100011.81;;;20.87;47.58
79131;BME280;72396;45.194;9.142;2023-11-21T04:32:54;100029.06;;;20.94;47.39
79131;BME280;72396;45.194;9.142;2023-11-21T04:35:20;100026.38;;;20.94;47.17
79131;BME280;72396;45.194;9.142;2023-11-21T04:37:45;100026.53;;;20.93;47.31
79131;BME280;72396;45.194;9.142;2023-11-21T04:40:11;100022.00;;;20.93;47.37
79131;BME280;72396;45.194;9.142;2023-11-21T04:42:37;100019.72;;;20.89;47.34
79131;BME280;72396;45.194;9.142;2023-11-21T04:45:06;100029.47;;;20.90;47.29
79131;BME280;72396;45.194;9.142;2023-11-21T04:47:36;100029.47;;;20.90;47.33
79131;BME280;72396;45.194;9.142;2023-11-21T04:50:02;100031.28;;;20.89;47.25
79131;BME280;72396;45.194;9.142;2023-11-21T04:52:28;100025.94;;;20.89;47.12
79131;BME280;72396;45.194;9.142;2023-11-21T04:54:54;100030.31;;;20.90;47.29
79131;BME280;72396;45.194;9.142;2023-11-21T04:57:20;100033.13;;;20.89;46.89
79131;BME280;72396;45.194;9.142;2023-11-21T04:59:45;100030.59;;;20.87;47.05
79131;BME280;72396;45.194;9.142;2023-11-21T05:02:11;100030.31;;;20.90;47.10
79131;BME280;72396;45.194;9.142;2023-11-21T05:04:37;100024.94;;;20.90;47.11
79131;BME280;72396;45.194;9.142;2023-11-21T05:07:03;100019.00;;;20.86;46.74
79131;BME280;72396;45.194;9.142;2023-11-21T05:09:28;100022.28;;;20.90;46.86
79131;BME280;72396;45.194;9.142;2023-11-21T05:11:57;100027.75;;;20.89;46.87
79131;BME280;72396;45.194;9.142;2023-11-21T05:14:22;100028.34;;;20.92;46.78
79131;BME280;72396;45.194;9.142;2023-11-21T05:16:48;100022.28;;;20.90;46.67
79131;BME280;72396;45.194;9.142;2023-11-21T05:19:13;100028.34;;;20.92;46.82
79131;BME280;72396;45.194;9.142;2023-11-21T05:21:38;100031.72;;;20.94;46.72
79131;BME280;72396;45.194;9.142;2023-11-21T05:24:04;100019.19;;;20.95;47.16
79131;BME280;72396;45.194;9.142;2023-11-21T05:26:30;100022.88;;;21.04;47.11
79131;BME280;72396;45.194;9.142;2023-11-21T05:28:56;100026.28;;;21.06;46.83
79131;BME280;72396;45.194;9.142;2023-11-21T05:31:21;100032.78;;;21.13;47.25
79131;BME280;72396;45.194;9.142;2023-11-21T05:33:47;100030.84;;;21.15;47.32
79131;BME280;72396;45.194;9.142;2023-11-21T05:36:12;100034.47;;;21.14;47.22
79131;BME280;72396;45.194;9.142;2023-11-21T05:38:38;100021.22;;;21.12;47.12
79131;BME280;72396;45.194;9.142;2023-11-21T05:41:03;100026.44;;;21.14;46.97
79131;BME280;72396;45.194;9.142;2023-11-21T05:43:30;100030.69;;;21.17;47.63
79131;BME280;72396;45.194;9.142;2023-11-21T05:45:56;100025.91;;;21.20;47.34
79131;BME280;72396;45.194;9.142;2023-11-21T05:48:21;100035.00;;;20.77;43.16
79131;BME280;72396;45.194;9.142;2023-11-21T05:50:46;100038.53;;;20.25;45.56
79131;BME280;72396;45.194;9.142;2023-11-21T05:53:13;100030.06;;;20.41;45.96
79131;BME280;72396;45.194;9.142;2023-11-21T05:55:41;100034.66;;;20.60;45.92
79131;BME280;72396;45.194;9.142;2023-11-21T05:58:06;100041.03;;;20.69;45.75
79131;BME280;72396;45.194;9.142;2023-11-21T06:00:32;100039.81;;;20.73;45.84
79131;BME280;72396;45.194;9.142;2023-11-21T06:02:58;100037.69;;;20.77;45.52
79131;BME280;72396;45.194;9.142;2023-11-21T06:05:24;100041.34;;;20.76;45.05
79131;BME280;72396;45.194;9.142;2023-11-21T06:07:51;100037.56;;;20.78;45.29
79131;BME280;72396;45.194;9.142;2023-11-21T06:10:19;100033.91;;;20.79;45.26
79131;BME280;72396;45.194;9.142;2023-11-21T06:12:44;100028.16;;;20.53;45.28
79131;BME280;72396;45.194;9.142;2023-11-21T06:15:10;100021.56;;;20.67;45.27
79131;BME280;72396;45.194;9.142;2023-11-21T06:17:41;100025.28;;;20.76;45.30
79131;BME280;72396;45.194;9.142;2023-11-21T06:20:10;100024.19;;;20.78;45.13
79131;BME280;72396;45.194;9.142;2023-11-21T06:22:44;100023.53;;;20.86;45.84
79131;BME280;72396;45.194;9.142;2023-11-21T06:25:10;100021.16;;;20.93;46.02
79131;BME280;72396;45.194;9.142;2023-11-21T06:27:44;100030.34;;;21.00;45.70
79131;BME280;72396;45.194;9.142;2023-11-21T06:30:10;100027.66;;;21.00;45.68
79131;BME280;72396;45.194;9.142;2023-11-21T06:32:37;100037.97;;;21.05;45.49
79131;BME280;72396;45.194;9.142;2023-11-21T06:35:03;100037.28;;;21.03;45.88
79131;BME280;72396;45.194;9.142;2023-11-21T06:37:29;100037.28;;;21.03;45.37
79131;BME280;72396;45.194;9.142;2023-11-21T06:39:55;100027.97;;;21.07;45.66
79131;BME280;72396;45.194;9.142;2023-11-21T06:42:22;100024.59;;;21.05;45.44
79131;BME280;72396;45.194;9.142;2023-11-21T06:44:48;100022.59;;;21.07;45.43
79131;BME280;72396;45.194;9.142;2023-11-21T06:47:14;100025.16;;;21.08;45.37
79131;BME280;72396;45.194;9.142;2023-11-21T06:49:41;100010.75;;;20.99;45.26
79131;BME280;72396;45.194;9.142;2023-11-21T06:52:06;100020.63;;;21.09;45.38
79131;BME280;72396;45.194;9.142;2023-11-21T06:54:31;100020.63;;;21.09;45.35
79131;BME280;72396;45.194;9.142;2023-11-21T06:56:58;100016.97;;;21.10;45.41
79131;BME280;72396;45.194;9.142;2023-11-21T06:59:23;100010.19;;;21.06;45.46
79131;BME280;72396;45.194;9.142;2023-11-21T07:01:50;100024.31;;;21.08;45.50
79131;BME280;72396;45.194;9.142;2023-11-21T07:04:15;100032.78;;;21.13;45.86
79131;BME280;72396;45.194;9.142;2023-11-21T07:06:40;100030.69;;;21.17;45.62
79131;BME280;72396;45.194;9.142;2023-11-21T07:09:06;100026.44;;;21.14;45.48
79131;BME280;72396;45.194;9.142;2023-11-21T07:11:34;100021.66;;;21.18;45.56
79131;BME280;72396;45.194;9.142;2023-11-21T07:13:59;100018.13;;;21.17;45.51
79131;BME280;72396;45.194;9.142;2023-11-21T07:16:24;100014.59;;;21.17;45.67
79131;BME280;72396;45.194;9.142;2023-11-21T07:18:51;100019.25;;;21.14;45.49
79131;BME280;72396;45.194;9.142;2023-11-21T07:21:17;100027.16;;;21.16;45.68
79131;BME280;72396;45.194;9.142;2023-11-21T07:23:42;100025.31;;;21.17;45.57
79131;BME280;72396;45.194;9.142;2023-11-21T07:26:07;100035.06;;;21.18;45.43
79131;BME280;72396;45.194;9.142;2023-11-21T07:28:35;100045.78;;;21.18;45.35
79131;BME280;72396;45.194;9.142;2023-11-21T07:31:01;100045.94;;;21.16;45.55
79131;BME280;72396;45.194;9.142;2023-11-21T07:33:26;100046.75;;;21.17;45.47
79131;BME280;72396;45.194;9.142;2023-11-21T07:35:52;100046.72;;;21.07;45.79
79131;BME280;72396;45.194;9.142;2023-11-21T07:38:17;100056.78;;;21.14;45.83
79131;BME280;72396;45.194;9.142;2023-11-21T07:40:43;100041.09;;;21.10;45.78
79131;BME280;72396;45.194;9.142;2023-11-21T07:43:08;100048.75;;;21.14;45.87
79131;BME280;72396;45.194;9.142;2023-11-21T07:45:34;100050.84;;;21.11;46.04
79131;BME280;72396;45.194;9.142;2023-11-21T07:47:59;100058.16;;;21.09;45.77
79131;BME280;72396;45.194;9.142;2023-11-21T07:50:26;100065.22;;;21.10;45.61
79131;BME280;72396;45.194;9.142;2023-11-21T07:52:52;100061.41;;;21.03;45.46
79131;BME280;72396;45.194;9.142;2023-11-21T07:55:19;100058.44;;;21.06;45.70
79131;BME280;72396;45.194;9.142;2023-11-21T07:57:45;100057.31;;;20.98;45.50
79131;BME280;72396;45.194;9.142;2023-11-21T08:00:10;100062.38;;;21.01;45.85
79131;BME280;72396;45.194;9.142;2023-11-21T08:02:40;100060.41;;;21.04;45.94
79131;BME280;72396;45.194;9.142;2023-11-21T08:05:11;100051.38;;;21.05;45.70
79131;BME280;72396;45.194;9.142;2023-11-21T08:07:37;100051.00;;;21.09;45.70
79131;BME280;72396;45.194;9.142;2023-11-21T08:10:03;100058.59;;;21.14;45.77
79131;BME280;72396;45.194;9.142;2023-11-21T08:12:30;100059.84;;;21.10;45.56
79131;BME280;72396;45.194;9.142;2023-11-21T08:14:55;100056.19;;;21.11;45.54
79131;BME280;72396;45.194;9.142;2023-11-21T08:17:20;100055.09;;;21.13;45.40
79131;BME280;72396;45.194;9.142;2023-11-21T08:19:46;100041.97;;;21.10;45.48
79131;BME280;72396;45.194;9.142;2023-11-21T08:22:15;100051.53;;;21.13;45.53
79131;BME280;72396;45.194;9.142;2023-11-21T08:24:41;100037.72;;;21.08;45.34
79131;BME280;72396;45.194;9.142;2023-11-21T08:27:06;100043.66;;;21.11;45.35
79131;BME280;72396;45.194;9.142;2023-11-21T08:29:32;100042.94;;;21.09;45.44
79131;BME280;72396;45.194;9.142;2023-11-21T08:31:57;100047.44;;;21.09;45.33
79131;BME280;72396;45.194;9.142;2023-11-21T08:34:23;100048.31;;;21.09;45.35
79131;BME280;72396;45.194;9.142;2023-11-21T08:36:49;100045.75;;;21.08;45.19
79131;BME280;72396;45.194;9.142;2023-11-21T08:39:16;100041.25;;;21.08;45.35
79131;BME280;72396;45.194;9.142;2023-11-21T08:41:44;100028.84;;;21.07;45.32
79131;BME280;72396;45.194;9.142;2023-11-21T08:44:09;100025.28;;;21.07;45.27
79131;BME280;72396;45.194;9.142;2023-11-21T08:46:34;100013.16;;;21.03;45.25
79131;BME280;72396;45.194;9.142;2023-11-21T08:49:02;100000.59;;;21.03;45.20
79131;BME280;72396;45.194;9.142;2023-11-21T08:51:27;99998.88;;;21.02;44.98
79131;BME280;72396;45.194;9.142;2023-11-21T08:53:52;99994.22;;;21.04;45.05
79131;BME280;72396;45.194;9.142;2023-11-21T08:56:18;100001.56;;;21.02;45.19
79131;BME280;72396;45.194;9.142;2023-11-21T08:58:45;99998.47;;;20.97;44.96
79131;BME280;72396;45.194;9.142;2023-11-21T09:01:12;100002.28;;;21.04;45.08
79131;BME280;72396;45.194;9.142;2023-11-21T09:03:37;99989.31;;;20.99;46.45
79131;BME280;72396;45.194;9.142;2023-11-21T09:06:03;99991.16;;;21.09;47.30
79131;BME280;72396;45.194;9.142;2023-11-21T09:08:28;99985.97;;;21.17;47.03
79131;BME280;72396;45.194;9.142;2023-11-21T09:10:54;99984.53;;;21.13;46.20
79131;BME280;72396;45.194;9.142;2023-11-21T09:13:20;99989.03;;;21.03;45.42
79131;BME280;72396;45.194;9.142;2023-11-21T09:15:45;99981.97;;;21.01;45.61
79131;BME280;72396;45.194;9.142;2023-11-21T09:18:14;99968.00;;;21.08;45.80
79131;BME280;72396;45.194;9.142;2023-11-21T09:20:41;99962.25;;;21.12;45.81
79131;BME280;72396;45.194;9.142;2023-11-21T09:23:06;99970.72;;;21.18;45.54
79131;BME280;72396;45.194;9.142;2023-11-21T09:25:32;99965.50;;;21.16;45.46
79131;BME280;72396;45.194;9.142;2023-11-21T09:27:58;99975.09;;;21.19;45.57
79131;BME280;72396;45.194;9.142;2023-11-21T09:30:23;99970.88;;;21.16;45.59
79131;BME280;72396;45.194;9.142;2023-11-21T09:32:50;99974.81;;;21.22;45.42
79131;BME280;72396;45.194;9.142;2023-11-21T09:35:15;99975.66;;;21.22;45.59
79131;BME280;72396;45.194;9.142;2023-11-21T09:37:43;99973.84;;;21.23;45.50
79131;BME280;72396;45.194;9.142;2023-11-21T09:40:11;99965.94;;;21.21;45.55
79131;BME280;72396;45.194;9.142;2023-11-21T09:42:41;99948.69;;;21.14;45.69
79131;BME280;72396;45.194;9.142;2023-11-21T09:45:28;99952.09;;;21.16;45.74
79131;BME280;72396;45.194;9.142;2023-11-21T09:47:56;99958.00;;;21.20;45.76
79131;BME280;72396;45.194;9.142;2023-11-21T09:50:22;99957.88;;;21.21;45.48
79131;BME280;72396;45.194;9.142;2023-11-21T09:55:26;99947.00;;;21.13;45.63
79131;BME280;72396;45.194;9.142;2023-11-21T09:57:54;99949.25;;;21.18;45.55
79131;BME280;72396;45.194;9.142;2023-11-21T10:00:21;99952.09;;;21.16;45.48
79131;BME280;72396;45.194;9.142;2023-11-21T10:02:49;99946.75;;;21.16;45.64
79131;BME280;72396;45.194;9.142;2023-11-21T10:05:15;99938.69;;;21.06;45.10
79131;BME280;72396;45.194;9.142;2023-11-21T10:07:43;99934.16;;;21.07;45.13
79131;BME280;72396;45.194;9.142;2023-11-21T10:10:10;99931.19;;;21.10;45.52
79131;BME280;72396;45.194;9.142;2023-11-21T10:12:36;99935.84;;;21.08;45.56
79131;BME280;72396;45.194;9.142;2023-11-21T10:15:07;99938.53;;;21.08;45.79
79131;BME280;72396;45.194;9.142;2023-11-21T10:17:35;99935.56;;;21.11;46.41
79131;BME280;72396;45.194;9.142;2023-11-21T10:20:09;99943.31;;;21.14;46.51
79131;BME280;72396;45.194;9.142;2023-11-21T10:22:39;99946.59;;;21.18;46.45
79131;BME280;72396;45.194;9.142;2023-11-21T10:25:06;99945.59;;;21.19;46.35
79131;BME280;72396;45.194;9.142;2023-11-21T10:27:33;99944.75;;;21.18;46.23
79131;BME280;72396;45.194;9.142;2023-11-21T10:30:01;99921.63;;;21.07;46.21
79131;BME280;72396;45.194;9.142;2023-11-21T10:32:28;99945.03;;;21.15;46.11
79131;BME280;72396;45.194;9.142;2023-11-21T10:34:57;99949.41;;;21.16;46.11
79131;BME280;72396;45.194;9.142;2023-11-21T10:37:23;99950.25;;;21.17;45.88
79131;BME280;72396;45.194;9.142;2023-11-21T10:39:48;99946.00;;;21.14;46.03
79131;BME280;72396;45.194;9.142;2023-11-21T10:42:14;99935.16;;;21.15;45.76
79131;BME280;72396;45.194;9.142;2023-11-21T10:44:41;99934.44;;;21.13;45.90
79131;BME280;72396;45.194;9.142;2023-11-21T10:47:09;99933.75;;;21.11;45.75
79131;BME280;72396;45.194;9.142;2023-11-21T10:49:37;99932.59;;;21.14;45.64
79131;BME280;72396;45.194;9.142;2023-11-21T10:52:03;99930.63;;;21.06;45.77
79131;BME280;72396;45.194;9.142;2023-11-21T10:54:29;99912.72;;;21.07;45.72
79131;BME280;72396;45.194;9.142;2023-11-21T10:57:00;99914.81;;;21.13;45.91
79131;BME280;72396;45.194;9.142;2023-11-21T10:59:30;99916.38;;;21.15;45.79
79131;BME280;72396;45.194;9.142;2023-11-21T11:01:57;99915.41;;;21.17;45.90
79131;BME280;72396;45.194;9.142;2023-11-21T11:04:25;99902.97;;;21.15;45.70
79131;BME280;72396;45.194;9.142;2023-11-21T11:06:57;99919.94;;;21.16;45.68
79131;BME280;72396;45.194;9.142;2023-11-21T11:09:23;99919.06;;;21.15;45.49
79131;BME280;72396;45.194;9.142;2023-11-21T11:11:48;99919.19;;;21.14;45.57
79131;BME280;72396;45.194;9.142;2023-11-21T11:14:15;99916.50;;;21.14;45.61
79131;BME280;72396;45.194;9.142;2023-11-21T11:16:45;99914.41;;;21.18;45.77
79131;BME280;72396;45.194;9.142;2023-11-21T11:19:10;99906.25;;;21.19;45.75
79131;BME280;72396;45.194;9.142;2023-11-21T11:36:03;99890.28;;;21.27;47.77
79131;BME280;72396;45.194;9.142;2023-11-21T11:38:31;99896.91;;;21.33;47.87
79131;BME280;72396;45.194;9.142;2023-11-21T11:41:01;99889.16;;;21.20;47.18
79131;BME280;72396;45.194;9.142;2023-11-21T11:43:29;99884.78;;;21.19;47.84
79131;BME280;72396;45.194;9.142;2023-11-21T11:45:56;99874.78;;;21.21;47.37
79131;BME280;72396;45.194;9.142;2023-11-21T11:48:22;99877.88;;;21.17;46.76
79131;BME280;72396;45.194;9.142;2023-11-21T11:51:10;99878.84;;;21.25;47.54
79131;BME280;72396;45.194;9.142;2023-11-21T11:53:44;99882.22;;;21.37;49.71
79131;BME280;72396;45.194;9.142;2023-11-21T11:56:21;99870.53;;;21.28;47.43
79131;BME280;72396;45.194;9.142;2023-11-21T11:58:49;99855.00;;;21.22;47.32
79131;BME280;72396;45.194;9.142;2023-11-21T12:01:18;99852.34;;;21.22;47.65
79131;BME280;72396;45.194;9.142;2023-11-21T12:03:44;99862.22;;;21.32;47.65
79131;BME280;72396;45.194;9.142;2023-11-21T12:06:09;99829.75;;;21.25;47.10
79131;BME280;72396;45.194;9.142;2023-11-21T12:08:37;99851.03;;;21.36;47.49
79131;BME280;72396;45.194;9.142;2023-11-21T12:11:03;99847.53;;;21.36;46.79
79131;BME280;72396;45.194;9.142;2023-11-21T12:13:29;99842.88;;;21.38;48.76
79131;BME280;72396;45.194;9.142;2023-11-21T12:15:55;99845.97;;;21.43;48.63
79131;BME280;72396;45.194;9.142;2023-11-21T12:18:21;99843.28;;;21.43;47.77
79131;BME280;72396;45.194;9.142;2023-11-21T12:20:46;99843.16;;;21.44;50.51
79131;BME280;72396;45.194;9.142;2023-11-21T12:23:14;99850.75;;;21.49;49.51
79131;BME280;72396;45.194;9.142;2023-11-21T12:25:41;99836.63;;;21.47;49.36
79131;BME280;72396;45.194;9.142;2023-11-21T12:28:07;99819.31;;;21.41;49.17
79131;BME280;72396;45.194;9.142;2023-11-21T12:30:34;99818.44;;;21.41;48.85
79131;BME280;72396;45.194;9.142;2023-11-21T12:33:04;99814.22;;;21.48;49.99
79131;BME280;72396;45.194;9.142;2023-11-21T12:35:32;99809.41;;;21.42;49.87
79131;BME280;72396;45.194;9.142;2023-11-21T12:38:02;99818.28;;;21.52;49.47
79131;BME280;72396;45.194;9.142;2023-11-21T12:40:28;99824.91;;;21.58;50.43
79131;BME280;72396;45.194;9.142;2023-11-21T12:42:58;99820.25;;;21.60;49.06
79131;BME280;72396;45.194;9.142;2023-11-21T12:45:26;99817.28;;;21.53;50.78
79131;BME280;72396;45.194;9.142;2023-11-21T12:48:05;99804.19;;;21.50;49.56
79131;BME280;72396;45.194;9.142;2023-11-21T12:50:37;99826.47;;;21.51;50.49
79131;BME280;72396;45.194;9.142;2023-11-21T12:53:04;99812.06;;;21.52;51.98
79131;BME280;72396;45.194;9.142;2023-11-21T12:55:31;99824.75;;;21.60;52.12
79131;BME280;72396;45.194;9.142;2023-11-21T12:57:57;99835.47;;;21.60;50.48
79131;BME280;72396;45.194;9.142;2023-11-21T13:00:35;99827.03;;;21.54;50.10
79131;BME280;72396;45.194;9.142;2023-11-21T13:03:03;99821.97;;;21.51;49.57
79131;BME280;72396;45.194;9.142;2023-11-21T13:05:32;99824.66;;;21.51;51.00
79131;BME280;72396;45.194;9.142;2023-11-21T13:08:00;99812.34;;;21.49;50.78